sensor_id;sensor_type;location;lat;lon;timestamp;temperature;humidity
52415;DHT22;38340;52.964;6.086;2022-09-14T00:01:23;11.60;99.90
52415;DHT22;38340;52.964;6.086;2022-09-14T00:03:54;11.60;99.90
52415;DHT22;38340;52.964;6.086;2022-09-14T00:06:20;11.60;99.90
52415;DHT22;38340;52.964;6.086;2022-09-14T00:08:49;11.60;99.90
52415;DHT22;38340;52.964;6.086;2022-09-14T00:11:15;11.60;99.90
52415;DHT22;38340;52.964;6.086;2022-09-14T00:13:43;11.60;99.90
52415;DHT22;38340;52.964;6.086;2022-09-14T00:16:19;11.50;99.90
52415;DHT22;38340;52.964;6.086;2022-09-14T00:18:49;11.50;99.90
52415;DHT22;38340;52.964;6.086;2022-09-14T00:21:15;11.40;99.90
52415;DHT22;38340;52.964;6.086;2022-09-14T00:23:41;11.50;99.90
52415;DHT22;38340;52.964;6.086;2022-09-14T00:26:17;11.50;99.90
52415;DHT22;38340;52.964;6.086;2022-09-14T00:28:48;11.60;99.90
52415;DHT22;38340;52.964;6.086;2022-09-14T00:31:15;11.60;99.90
52415;DHT22;38340;52.964;6.086;2022-09-14T00:33:42;11.60;99.90
52415;DHT22;38340;52.964;6.086;2022-09-14T00:36:11;11.60;99.90
52415;DHT22;38340;52.964;6.086;2022-09-14T00:38:38;11.60;99.90
52415;DHT22;38340;52.964;6.086;2022-09-14T00:41:06;11.60;99.90
52415;DHT22;38340;52.964;6.086;2022-09-14T00:43:32;11.60;99.90
52415;DHT22;38340;52.964;6.086;2022-09-14T00:46:01;11.70;99.90
52415;DHT22;38340;52.964;6.086;2022-09-14T00:48:28;11.70;99.90
52415;DHT22;38340;52.964;6.086;2022-09-14T00:50:55;11.80;99.90
52415;DHT22;38340;52.964;6.086;2022-09-14T00:53:21;11.90;99.90
52415;DHT22;38340;52.964;6.086;2022-09-14T00:55:47;11.80;99.90
52415;DHT22;38340;52.964;6.086;2022-09-14T00:58:13;11.90;99.90
52415;DHT22;38340;52.964;6.086;2022-09-14T01:00:39;11.90;99.90
52415;DHT22;38340;52.964;6.086;2022-09-14T01:03:04;12.00;99.90
52415;DHT22;38340;52.964;6.086;2022-09-14T01:08:46;12.00;99.90
52415;DHT22;38340;52.964;6.086;2022-09-14T01:11:42;12.00;99.90
52415;DHT22;38340;52.964;6.086;2022-09-14T01:14:31;12.00;99.90
52415;DHT22;38340;52.964;6.086;2022-09-14T01:20:09;12.10;99.90
52415;DHT22;38340;52.964;6.086;2022-09-14T01:25:26;12.10;99.90
52415;DHT22;38340;52.964;6.086;2022-09-14T01:27:54;12.20;99.90
52415;DHT22;38340;52.964;6.086;2022-09-14T01:30:22;12.20;99.90
52415;DHT22;38340;52.964;6.086;2022-09-14T01:35:42;12.20;99.90
52415;DHT22;38340;52.964;6.086;2022-09-14T01:38:25;12.20;99.90
52415;DHT22;38340;52.964;6.086;2022-09-14T01:40:54;12.30;99.90
52415;DHT22;38340;52.964;6.086;2022-09-14T01:43:26;12.30;99.90
52415;DHT22;38340;52.964;6.086;2022-09-14T01:45:58;12.30;99.90
52415;DHT22;38340;52.964;6.086;2022-09-14T01:48:43;12.50;99.90
52415;DHT22;38340;52.964;6.086;2022-09-14T01:51:13;12.40;99.90
52415;DHT22;38340;52.964;6.086;2022-09-14T01:53:51;12.50;99.90
52415;DHT22;38340;52.964;6.086;2022-09-14T01:56:37;12.50;99.90
52415;DHT22;38340;52.964;6.086;2022-09-14T02:01:34;12.40;99.90
52415;DHT22;38340;52.964;6.086;2022-09-14T02:04:06;12.50;99.90
52415;DHT22;38340;52.964;6.086;2022-09-14T02:09:03;12.40;99.90
52415;DHT22;38340;52.964;6.086;2022-09-14T02:11:30;12.40;99.90
52415;DHT22;38340;52.964;6.086;2022-09-14T02:13:56;12.40;99.90
52415;DHT22;38340;52.964;6.086;2022-09-14T02:16:22;12.40;99.90
52415;DHT22;38340;52.964;6.086;2022-09-14T02:18:49;12.50;99.90
52415;DHT22;38340;52.964;6.086;2022-09-14T02:21:22;12.40;99.90
52415;DHT22;38340;52.964;6.086;2022-09-14T02:23:49;12.50;99.90
52415;DHT22;38340;52.964;6.086;2022-09-14T02:26:16;12.50;99.90
52415;DHT22;38340;52.964;6.086;2022-09-14T02:28:43;12.50;99.90
52415;DHT22;38340;52.964;6.086;2022-09-14T02:52:26;12.60;99.90
52415;DHT22;38340;52.964;6.086;2022-09-14T02:55:08;12.60;99.90
52415;DHT22;38340;52.964;6.086;2022-09-14T02:57:57;12.60;99.90
52415;DHT22;38340;52.964;6.086;2022-09-14T03:00:23;12.60;99.90
52415;DHT22;38340;52.964;6.086;2022-09-14T03:02:49;12.60;99.90
52415;DHT22;38340;52.964;6.086;2022-09-14T03:05:15;12.60;99.90
52415;DHT22;38340;52.964;6.086;2022-09-14T03:07:40;12.70;99.90
52415;DHT22;38340;52.964;6.086;2022-09-14T03:10:06;12.70;99.90
52415;DHT22;38340;52.964;6.086;2022-09-14T03:12:32;12.60;99.90
52415;DHT22;38340;52.964;6.086;2022-09-14T03:14:58;12.70;99.90
52415;DHT22;38340;52.964;6.086;2022-09-14T03:17:24;12.70;99.90
52415;DHT22;38340;52.964;6.086;2022-09-14T03:19:49;12.60;99.90
52415;DHT22;38340;52.964;6.086;2022-09-14T03:22:15;12.70;99.90
52415;DHT22;38340;52.964;6.086;2022-09-14T03:24:41;12.70;99.90
52415;DHT22;38340;52.964;6.086;2022-09-14T03:27:06;12.70;99.90
52415;DHT22;38340;52.964;6.086;2022-09-14T03:29:32;12.70;99.90
52415;DHT22;38340;52.964;6.086;2022-09-14T03:31:57;12.70;99.90
52415;DHT22;38340;52.964;6.086;2022-09-14T03:34:23;12.70;99.90
52415;DHT22;38340;52.964;6.086;2022-09-14T03:36:49;12.70;99.90
52415;DHT22;38340;52.964;6.086;2022-09-14T03:39:14;12.70;99.90
52415;DHT22;38340;52.964;6.086;2022-09-14T03:41:40;12.70;99.90
52415;DHT22;38340;52.964;6.086;2022-09-14T03:44:06;12.70;99.90
52415;DHT22;38340;52.964;6.086;2022-09-14T03:46:32;12.70;99.90
52415;DHT22;38340;52.964;6.086;2022-09-14T03:48:57;12.70;99.90
52415;DHT22;38340;52.964;6.086;2022-09-14T03:51:23;12.60;99.90
52415;DHT22;38340;52.964;6.086;2022-09-14T03:53:49;12.60;99.90
52415;DHT22;38340;52.964;6.086;2022-09-14T03:56:16;12.70;99.90
52415;DHT22;38340;52.964;6.086;2022-09-14T03:58:44;12.70;99.90
52415;DHT22;38340;52.964;6.086;2022-09-14T04:01:14;12.60;99.90
52415;DHT22;38340;52.964;6.086;2022-09-14T04:03:40;12.60;99.90
52415;DHT22;38340;52.964;6.086;2022-09-14T04:06:07;12.70;99.90
52415;DHT22;38340;52.964;6.086;2022-09-14T04:08:34;12.70;99.90
52415;DHT22;38340;52.964;6.086;2022-09-14T04:11:04;12.60;99.90
52415;DHT22;38340;52.964;6.086;2022-09-14T04:13:31;12.70;99.90
52415;DHT22;38340;52.964;6.086;2022-09-14T04:15:58;12.60;99.90
52415;DHT22;38340;52.964;6.086;2022-09-14T04:18:25;12.70;99.90
52415;DHT22;38340;52.964;6.086;2022-09-14T04:21:00;12.60;99.90
52415;DHT22;38340;52.964;6.086;2022-09-14T04:23:27;12.70;99.90
52415;DHT22;38340;52.964;6.086;2022-09-14T04:25:53;12.70;99.90
52415;DHT22;38340;52.964;6.086;2022-09-14T04:28:19;12.80;99.90
52415;DHT22;38340;52.964;6.086;2022-09-14T04:30:57;12.70;99.90
52415;DHT22;38340;52.964;6.086;2022-09-14T04:33:23;12.60;99.90
52415;DHT22;38340;52.964;6.086;2022-09-14T04:36:07;12.70;99.90
52415;DHT22;38340;52.964;6.086;2022-09-14T04:38:34;12.80;99.90
52415;DHT22;38340;52.964;6.086;2022-09-14T04:41:04;12.80;99.90
52415;DHT22;38340;52.964;6.086;2022-09-14T04:43:30;12.80;99.90
52415;DHT22;38340;52.964;6.086;2022-09-14T04:46:02;12.80;99.90
52415;DHT22;38340;52.964;6.086;2022-09-14T04:48:30;12.90;99.90
52415;DHT22;38340;52.964;6.086;2022-09-14T04:51:12;12.90;99.90
52415;DHT22;38340;52.964;6.086;2022-09-14T04:53:41;13.00;99.90
52415;DHT22;38340;52.964;6.086;2022-09-14T04:56:08;12.90;99.90
52415;DHT22;38340;52.964;6.086;2022-09-14T04:58:36;12.90;99.90
52415;DHT22;38340;52.964;6.086;2022-09-14T05:01:15;13.00;99.90
52415;DHT22;38340;52.964;6.086;2022-09-14T05:03:41;13.00;99.90
52415;DHT22;38340;52.964;6.086;2022-09-14T05:06:15;13.00;99.90
52415;DHT22;38340;52.964;6.086;2022-09-14T05:08:42;12.90;99.90
52415;DHT22;38340;52.964;6.086;2022-09-14T05:11:12;12.90;99.90
52415;DHT22;38340;52.964;6.086;2022-09-14T05:13:38;12.90;99.90
52415;DHT22;38340;52.964;6.086;2022-09-14T05:16:27;13.00;99.90
52415;DHT22;38340;52.964;6.086;2022-09-14T05:18:55;13.00;99.90
52415;DHT22;38340;52.964;6.086;2022-09-14T05:21:22;13.00;99.90
52415;DHT22;38340;52.964;6.086;2022-09-14T05:23:56;13.00;99.90
52415;DHT22;38340;52.964;6.086;2022-09-14T05:26:23;13.10;99.90
52415;DHT22;38340;52.964;6.086;2022-09-14T05:28:51;13.10;99.90
52415;DHT22;38340;52.964;6.086;2022-09-14T05:31:18;13.10;99.90
52415;DHT22;38340;52.964;6.086;2022-09-14T05:33:44;13.10;99.90
52415;DHT22;38340;52.964;6.086;2022-09-14T05:36:09;13.10;99.90
52415;DHT22;38340;52.964;6.086;2022-09-14T05:38:37;13.10;99.90
52415;DHT22;38340;52.964;6.086;2022-09-14T05:41:03;13.20;99.90
52415;DHT22;38340;52.964;6.086;2022-09-14T05:43:30;13.20;99.90
52415;DHT22;38340;52.964;6.086;2022-09-14T05:45:59;13.20;99.90
52415;DHT22;38340;52.964;6.086;2022-09-14T05:48:25;13.10;99.90
52415;DHT22;38340;52.964;6.086;2022-09-14T05:50:57;13.20;99.90
52415;DHT22;38340;52.964;6.086;2022-09-14T05:53:23;13.20;99.90
52415;DHT22;38340;52.964;6.086;2022-09-14T05:56:01;13.20;99.90
52415;DHT22;38340;52.964;6.086;2022-09-14T05:58:27;13.30;99.90
52415;DHT22;38340;52.964;6.086;2022-09-14T06:00:53;13.20;99.90
52415;DHT22;38340;52.964;6.086;2022-09-14T06:03:18;13.30;99.90
52415;DHT22;38340;52.964;6.086;2022-09-14T06:05:44;13.40;99.90
52415;DHT22;38340;52.964;6.086;2022-09-14T06:08:10;13.40;99.90
52415;DHT22;38340;52.964;6.086;2022-09-14T06:10:35;13.40;99.90
52415;DHT22;38340;52.964;6.086;2022-09-14T06:13:01;13.50;99.90
52415;DHT22;38340;52.964;6.086;2022-09-14T06:15:26;13.50;99.90
52415;DHT22;38340;52.964;6.086;2022-09-14T06:17:52;13.60;99.90
52415;DHT22;38340;52.964;6.086;2022-09-14T06:20:18;13.60;99.90
52415;DHT22;38340;52.964;6.086;2022-09-14T06:22:43;13.70;99.90
52415;DHT22;38340;52.964;6.086;2022-09-14T06:25:09;13.70;99.90
52415;DHT22;38340;52.964;6.086;2022-09-14T06:27:36;13.90;99.90
52415;DHT22;38340;52.964;6.086;2022-09-14T06:30:03;13.90;99.90
52415;DHT22;38340;52.964;6.086;2022-09-14T06:32:30;13.90;99.90
52415;DHT22;38340;52.964;6.086;2022-09-14T06:34:55;13.90;99.90
52415;DHT22;38340;52.964;6.086;2022-09-14T06:37:21;14.00;99.90
52415;DHT22;38340;52.964;6.086;2022-09-14T06:39:47;14.00;99.90
52415;DHT22;38340;52.964;6.086;2022-09-14T06:42:12;14.10;99.90
52415;DHT22;38340;52.964;6.086;2022-09-14T06:44:38;14.10;99.90
52415;DHT22;38340;52.964;6.086;2022-09-14T06:47:05;14.30;99.90
52415;DHT22;38340;52.964;6.086;2022-09-14T06:49:31;14.40;99.90
52415;DHT22;38340;52.964;6.086;2022-09-14T06:51:56;14.40;99.90
52415;DHT22;38340;52.964;6.086;2022-09-14T06:54:23;14.40;99.90
52415;DHT22;38340;52.964;6.086;2022-09-14T06:56:49;14.60;99.90
52415;DHT22;38340;52.964;6.086;2022-09-14T06:59:16;14.60;99.90
52415;DHT22;38340;52.964;6.086;2022-09-14T07:01:42;14.70;99.90
52415;DHT22;38340;52.964;6.086;2022-09-14T07:04:10;14.70;99.90
52415;DHT22;38340;52.964;6.086;2022-09-14T07:06:44;14.80;99.90
52415;DHT22;38340;52.964;6.086;2022-09-14T07:09:11;14.90;99.90
52415;DHT22;38340;52.964;6.086;2022-09-14T07:11:37;15.10;99.90
52415;DHT22;38340;52.964;6.086;2022-09-14T07:14:03;15.20;99.90
52415;DHT22;38340;52.964;6.086;2022-09-14T07:16:30;15.20;99.90
52415;DHT22;38340;52.964;6.086;2022-09-14T07:18:58;15.30;99.90
52415;DHT22;38340;52.964;6.086;2022-09-14T07:21:25;15.50;99.90
52415;DHT22;38340;52.964;6.086;2022-09-14T07:23:51;15.50;99.90
52415;DHT22;38340;52.964;6.086;2022-09-14T07:28:53;15.50;99.90
52415;DHT22;38340;52.964;6.086;2022-09-14T07:31:38;15.70;99.90
52415;DHT22;38340;52.964;6.086;2022-09-14T07:34:05;15.80;99.90
52415;DHT22;38340;52.964;6.086;2022-09-14T07:36:33;15.80;99.90
52415;DHT22;38340;52.964;6.086;2022-09-14T07:38:59;16.00;99.90
52415;DHT22;38340;52.964;6.086;2022-09-14T07:41:27;16.10;99.90
52415;DHT22;38340;52.964;6.086;2022-09-14T07:43:55;16.20;99.90
52415;DHT22;38340;52.964;6.086;2022-09-14T07:46:22;16.20;99.90
52415;DHT22;38340;52.964;6.086;2022-09-14T07:48:53;16.40;99.90
52415;DHT22;38340;52.964;6.086;2022-09-14T07:51:19;16.40;99.90
52415;DHT22;38340;52.964;6.086;2022-09-14T07:53:44;16.60;99.90
52415;DHT22;38340;52.964;6.086;2022-09-14T07:56:11;16.60;99.90
52415;DHT22;38340;52.964;6.086;2022-09-14T07:58:38;16.60;99.90
52415;DHT22;38340;52.964;6.086;2022-09-14T08:01:07;16.60;99.90
52415;DHT22;38340;52.964;6.086;2022-09-14T08:03:34;16.80;99.90
52415;DHT22;38340;52.964;6.086;2022-09-14T08:06:02;16.80;99.90
52415;DHT22;38340;52.964;6.086;2022-09-14T08:08:35;16.90;99.90
52415;DHT22;38340;52.964;6.086;2022-09-14T08:11:09;16.80;99.90
52415;DHT22;38340;52.964;6.086;2022-09-14T08:13:37;16.90;99.90
52415;DHT22;38340;52.964;6.086;2022-09-14T08:16:03;17.00;99.90
52415;DHT22;38340;52.964;6.086;2022-09-14T08:18:31;17.00;99.90
52415;DHT22;38340;52.964;6.086;2022-09-14T08:21:06;17.20;99.90
52415;DHT22;38340;52.964;6.086;2022-09-14T08:23:33;17.20;99.90
52415;DHT22;38340;52.964;6.086;2022-09-14T08:26:07;17.30;99.90
52415;DHT22;38340;52.964;6.086;2022-09-14T08:28:34;17.40;99.90
52415;DHT22;38340;52.964;6.086;2022-09-14T08:31:05;17.50;99.90
52415;DHT22;38340;52.964;6.086;2022-09-14T08:33:34;17.50;99.90
52415;DHT22;38340;52.964;6.086;2022-09-14T08:36:00;17.50;99.90
52415;DHT22;38340;52.964;6.086;2022-09-14T08:38:26;17.50;99.90
52415;DHT22;38340;52.964;6.086;2022-09-14T08:40:52;17.60;99.90
52415;DHT22;38340;52.964;6.086;2022-09-14T08:43:20;17.50;99.90
52415;DHT22;38340;52.964;6.086;2022-09-14T08:45:48;17.50;99.90
52415;DHT22;38340;52.964;6.086;2022-09-14T08:48:25;17.50;99.90
52415;DHT22;38340;52.964;6.086;2022-09-14T08:50:51;17.60;99.90
52415;DHT22;38340;52.964;6.086;2022-09-14T08:53:20;17.70;99.90
52415;DHT22;38340;52.964;6.086;2022-09-14T08:55:52;17.70;99.90
52415;DHT22;38340;52.964;6.086;2022-09-14T09:11:45;18.90;99.90
52415;DHT22;38340;52.964;6.086;2022-09-14T09:17:02;19.00;99.90
52415;DHT22;38340;52.964;6.086;2022-09-14T09:19:44;19.20;99.90
52415;DHT22;38340;52.964;6.086;2022-09-14T09:22:14;19.30;99.90
52415;DHT22;38340;52.964;6.086;2022-09-14T09:24:44;19.30;99.90
52415;DHT22;38340;52.964;6.086;2022-09-14T09:27:13;19.30;99.90
52415;DHT22;38340;52.964;6.086;2022-09-14T09:29:40;19.50;99.90
52415;DHT22;38340;52.964;6.086;2022-09-14T09:32:11;19.60;99.90
52415;DHT22;38340;52.964;6.086;2022-09-14T09:34:38;19.50;99.90
52415;DHT22;38340;52.964;6.086;2022-09-14T09:37:04;19.50;99.90
52415;DHT22;38340;52.964;6.086;2022-09-14T09:39:30;19.70;99.90
52415;DHT22;38340;52.964;6.086;2022-09-14T09:42:02;19.80;99.90
52415;DHT22;38340;52.964;6.086;2022-09-14T09:44:57;20.00;99.90
52415;DHT22;38340;52.964;6.086;2022-09-14T09:47:39;20.30;99.90
52415;DHT22;38340;52.964;6.086;2022-09-14T09:50:19;20.60;99.90
52415;DHT22;38340;52.964;6.086;2022-09-14T09:52:57;20.80;99.90
52415;DHT22;38340;52.964;6.086;2022-09-14T09:55:26;20.80;99.90
52415;DHT22;38340;52.964;6.086;2022-09-14T09:57:55;20.90;99.90
52415;DHT22;38340;52.964;6.086;2022-09-14T10:00:26;20.80;99.90
52415;DHT22;38340;52.964;6.086;2022-09-14T10:02:53;20.80;99.90
52415;DHT22;38340;52.964;6.086;2022-09-14T10:05:27;20.60;99.90
52415;DHT22;38340;52.964;6.086;2022-09-14T10:08:01;20.40;99.90
52415;DHT22;38340;52.964;6.086;2022-09-14T10:12:59;20.30;99.90
52415;DHT22;38340;52.964;6.086;2022-09-14T10:15:28;20.30;99.90
52415;DHT22;38340;52.964;6.086;2022-09-14T10:20:35;19.70;99.90
52415;DHT22;38340;52.964;6.086;2022-09-14T10:25:50;19.60;99.90
52415;DHT22;38340;52.964;6.086;2022-09-14T10:28:26;19.60;99.90
52415;DHT22;38340;52.964;6.086;2022-09-14T10:33:38;19.80;99.90
52415;DHT22;38340;52.964;6.086;2022-09-14T10:46:20;20.20;99.90
52415;DHT22;38340;52.964;6.086;2022-09-14T11:07:45;19.90;99.90
52415;DHT22;38340;52.964;6.086;2022-09-14T11:13:35;20.00;99.90
52415;DHT22;38340;52.964;6.086;2022-09-14T11:16:54;19.90;99.90
52415;DHT22;38340;52.964;6.086;2022-09-14T11:19:34;19.90;99.90
52415;DHT22;38340;52.964;6.086;2022-09-14T11:22:05;19.90;99.90
52415;DHT22;38340;52.964;6.086;2022-09-14T11:24:53;20.00;99.90
52415;DHT22;38340;52.964;6.086;2022-09-14T11:27:39;19.90;99.90
52415;DHT22;38340;52.964;6.086;2022-09-14T11:30:19;19.90;99.90
52415;DHT22;38340;52.964;6.086;2022-09-14T11:33:08;19.80;99.90
52415;DHT22;38340;52.964;6.086;2022-09-14T11:35:40;19.80;99.90
52415;DHT22;38340;52.964;6.086;2022-09-14T11:40:51;19.90;99.90
52415;DHT22;38340;52.964;6.086;2022-09-14T11:43:28;20.00;99.90
52415;DHT22;38340;52.964;6.086;2022-09-14T11:46:35;20.10;99.90
52415;DHT22;38340;52.964;6.086;2022-09-14T11:52:03;20.10;99.90
52415;DHT22;38340;52.964;6.086;2022-09-14T11:54:32;20.00;99.90
52415;DHT22;38340;52.964;6.086;2022-09-14T11:57:02;20.00;99.90
52415;DHT22;38340;52.964;6.086;2022-09-14T12:17:41;20.40;99.90
52415;DHT22;38340;52.964;6.086;2022-09-14T12:22:45;20.90;99.90
52415;DHT22;38340;52.964;6.086;2022-09-14T12:27:38;21.20;99.90
52415;DHT22;38340;52.964;6.086;2022-09-14T12:33:03;21.50;99.90
52415;DHT22;38340;52.964;6.086;2022-09-14T12:40:54;21.40;99.90
52415;DHT22;38340;52.964;6.086;2022-09-14T12:48:55;20.60;99.90
52415;DHT22;38340;52.964;6.086;2022-09-14T13:04:53;20.20;99.90
52415;DHT22;38340;52.964;6.086;2022-09-14T13:07:21;20.20;99.90
52415;DHT22;38340;52.964;6.086;2022-09-14T13:09:50;20.20;99.90
52415;DHT22;38340;52.964;6.086;2022-09-14T13:12:40;20.20;99.90
52415;DHT22;38340;52.964;6.086;2022-09-14T13:15:30;20.10;99.90
52415;DHT22;38340;52.964;6.086;2022-09-14T13:18:03;20.20;99.90
52415;DHT22;38340;52.964;6.086;2022-09-14T13:20:32;20.30;99.90
52415;DHT22;38340;52.964;6.086;2022-09-14T13:22:58;20.30;99.90
52415;DHT22;38340;52.964;6.086;2022-09-14T13:27:51;20.40;99.90
52415;DHT22;38340;52.964;6.086;2022-09-14T13:30:18;20.40;99.90
52415;DHT22;38340;52.964;6.086;2022-09-14T13:32:48;20.30;99.90
52415;DHT22;38340;52.964;6.086;2022-09-14T13:35:35;20.10;99.90
52415;DHT22;38340;52.964;6.086;2022-09-14T13:38:09;19.90;99.90
52415;DHT22;38340;52.964;6.086;2022-09-14T13:40:38;19.80;99.90
52415;DHT22;38340;52.964;6.086;2022-09-14T13:43:04;19.70;99.90
52415;DHT22;38340;52.964;6.086;2022-09-14T13:45:31;19.60;99.90
52415;DHT22;38340;52.964;6.086;2022-09-14T13:47:57;19.50;99.90
52415;DHT22;38340;52.964;6.086;2022-09-14T13:50:23;19.50;99.90
52415;DHT22;38340;52.964;6.086;2022-09-14T13:52:50;19.50;99.90
52415;DHT22;38340;52.964;6.086;2022-09-14T13:55:27;19.50;99.90
52415;DHT22;38340;52.964;6.086;2022-09-14T13:58:19;19.70;99.90
52415;DHT22;38340;52.964;6.086;2022-09-14T14:00:58;19.80;99.90
52415;DHT22;38340;52.964;6.086;2022-09-14T14:03:30;19.90;99.90
52415;DHT22;38340;52.964;6.086;2022-09-14T14:05:56;20.10;99.90
52415;DHT22;38340;52.964;6.086;2022-09-14T14:08:40;20.20;99.90
52415;DHT22;38340;52.964;6.086;2022-09-14T14:11:07;20.20;99.90
52415;DHT22;38340;52.964;6.086;2022-09-14T14:13:35;20.30;99.90
52415;DHT22;38340;52.964;6.086;2022-09-14T14:16:21;20.40;99.90
52415;DHT22;38340;52.964;6.086;2022-09-14T14:18:55;20.50;99.90
52415;DHT22;38340;52.964;6.086;2022-09-14T14:23:49;20.20;99.90
52415;DHT22;38340;52.964;6.086;2022-09-14T14:26:20;20.10;99.90
52415;DHT22;38340;52.964;6.086;2022-09-14T14:28:47;19.80;99.90
52415;DHT22;38340;52.964;6.086;2022-09-14T14:31:15;19.80;99.90
52415;DHT22;38340;52.964;6.086;2022-09-14T14:33:45;19.60;99.90
52415;DHT22;38340;52.964;6.086;2022-09-14T14:36:11;19.60;99.90
52415;DHT22;38340;52.964;6.086;2022-09-14T14:38:37;19.60;99.90
52415;DHT22;38340;52.964;6.086;2022-09-14T14:41:05;19.50;99.90
52415;DHT22;38340;52.964;6.086;2022-09-14T14:43:31;19.50;99.90
52415;DHT22;38340;52.964;6.086;2022-09-14T14:46:00;19.60;99.90
52415;DHT22;38340;52.964;6.086;2022-09-14T14:48:27;19.60;99.90
52415;DHT22;38340;52.964;6.086;2022-09-14T14:50:53;19.70;99.90
52415;DHT22;38340;52.964;6.086;2022-09-14T14:53:21;19.70;99.90
52415;DHT22;38340;52.964;6.086;2022-09-14T14:55:47;19.80;99.90
52415;DHT22;38340;52.964;6.086;2022-09-14T14:58:16;19.80;99.90
52415;DHT22;38340;52.964;6.086;2022-09-14T15:00:42;19.90;99.90
52415;DHT22;38340;52.964;6.086;2022-09-14T15:03:08;20.00;99.90
52415;DHT22;38340;52.964;6.086;2022-09-14T15:05:34;20.00;99.90
52415;DHT22;38340;52.964;6.086;2022-09-14T15:08:03;19.90;99.90
52415;DHT22;38340;52.964;6.086;2022-09-14T15:10:29;19.90;99.90
52415;DHT22;38340;52.964;6.086;2022-09-14T15:12:55;19.80;99.90
52415;DHT22;38340;52.964;6.086;2022-09-14T15:15:23;19.80;99.90
52415;DHT22;38340;52.964;6.086;2022-09-14T15:17:50;19.90;99.90
52415;DHT22;38340;52.964;6.086;2022-09-14T15:20:16;19.90;99.90
52415;DHT22;38340;52.964;6.086;2022-09-14T15:22:42;19.80;99.90
52415;DHT22;38340;52.964;6.086;2022-09-14T15:25:09;19.70;99.90
52415;DHT22;38340;52.964;6.086;2022-09-14T15:27:36;19.70;99.90
52415;DHT22;38340;52.964;6.086;2022-09-14T15:30:02;19.70;99.90
52415;DHT22;38340;52.964;6.086;2022-09-14T15:32:28;19.70;99.90
52415;DHT22;38340;52.964;6.086;2022-09-14T15:34:54;19.70;99.90
52415;DHT22;38340;52.964;6.086;2022-09-14T15:37:19;19.70;99.90
52415;DHT22;38340;52.964;6.086;2022-09-14T15:39:45;19.70;99.90
52415;DHT22;38340;52.964;6.086;2022-09-14T15:42:12;19.60;99.90
52415;DHT22;38340;52.964;6.086;2022-09-14T15:44:38;19.60;99.90
52415;DHT22;38340;52.964;6.086;2022-09-14T15:47:04;19.50;99.90
52415;DHT22;38340;52.964;6.086;2022-09-14T15:49:29;19.40;99.90
52415;DHT22;38340;52.964;6.086;2022-09-14T15:51:56;19.40;99.90
52415;DHT22;38340;52.964;6.086;2022-09-14T15:54:25;19.30;99.90
52415;DHT22;38340;52.964;6.086;2022-09-14T15:56:56;19.20;99.90
52415;DHT22;38340;52.964;6.086;2022-09-14T15:59:25;19.10;99.90
52415;DHT22;38340;52.964;6.086;2022-09-14T16:01:52;19.10;99.90
52415;DHT22;38340;52.964;6.086;2022-09-14T16:04:18;19.00;99.90
52415;DHT22;38340;52.964;6.086;2022-09-14T16:06:44;18.90;99.90
52415;DHT22;38340;52.964;6.086;2022-09-14T16:09:11;18.70;99.90
52415;DHT22;38340;52.964;6.086;2022-09-14T16:11:38;18.70;99.90
52415;DHT22;38340;52.964;6.086;2022-09-14T16:14:05;18.60;99.90
52415;DHT22;38340;52.964;6.086;2022-09-14T16:16:32;18.60;99.90
52415;DHT22;38340;52.964;6.086;2022-09-14T16:19:10;18.60;99.90
52415;DHT22;38340;52.964;6.086;2022-09-14T16:21:37;18.60;99.90
52415;DHT22;38340;52.964;6.086;2022-09-14T16:24:06;18.50;99.90
52415;DHT22;38340;52.964;6.086;2022-09-14T16:26:34;18.40;99.90
52415;DHT22;38340;52.964;6.086;2022-09-14T16:29:00;18.40;99.90
52415;DHT22;38340;52.964;6.086;2022-09-14T16:31:35;18.30;99.90
52415;DHT22;38340;52.964;6.086;2022-09-14T16:34:05;18.30;99.90
52415;DHT22;38340;52.964;6.086;2022-09-14T16:36:34;18.20;99.90
52415;DHT22;38340;52.964;6.086;2022-09-14T16:39:03;18.20;99.90
52415;DHT22;38340;52.964;6.086;2022-09-14T16:41:29;18.20;99.90
52415;DHT22;38340;52.964;6.086;2022-09-14T16:43:57;18.20;99.90
52415;DHT22;38340;52.964;6.086;2022-09-14T16:46:23;18.20;99.90
52415;DHT22;38340;52.964;6.086;2022-09-14T16:48:49;18.10;99.90
52415;DHT22;38340;52.964;6.086;2022-09-14T16:51:18;18.10;99.90
52415;DHT22;38340;52.964;6.086;2022-09-14T16:53:46;18.00;99.90
52415;DHT22;38340;52.964;6.086;2022-09-14T16:56:15;18.00;99.90
52415;DHT22;38340;52.964;6.086;2022-09-14T16:58:42;18.00;99.90
52415;DHT22;38340;52.964;6.086;2022-09-14T17:01:18;17.90;99.90
52415;DHT22;38340;52.964;6.086;2022-09-14T17:03:45;17.80;99.90
52415;DHT22;38340;52.964;6.086;2022-09-14T17:06:15;17.80;99.90
52415;DHT22;38340;52.964;6.086;2022-09-14T17:08:42;17.80;99.90
52415;DHT22;38340;52.964;6.086;2022-09-14T17:11:08;17.70;99.90
52415;DHT22;38340;52.964;6.086;2022-09-14T17:13:34;17.60;99.90
52415;DHT22;38340;52.964;6.086;2022-09-14T17:16:11;17.60;99.90
52415;DHT22;38340;52.964;6.086;2022-09-14T17:18:39;17.50;99.90
52415;DHT22;38340;52.964;6.086;2022-09-14T17:21:11;17.40;99.90
52415;DHT22;38340;52.964;6.086;2022-09-14T17:23:38;17.40;99.90
52415;DHT22;38340;52.964;6.086;2022-09-14T17:26:06;17.30;99.90
52415;DHT22;38340;52.964;6.086;2022-09-14T17:28:33;17.30;99.90
52415;DHT22;38340;52.964;6.086;2022-09-14T17:31:01;17.30;99.90
52415;DHT22;38340;52.964;6.086;2022-09-14T17:33:27;17.20;99.90
52415;DHT22;38340;52.964;6.086;2022-09-14T17:35:55;17.10;99.90
52415;DHT22;38340;52.964;6.086;2022-09-14T17:38:24;17.00;99.90
52415;DHT22;38340;52.964;6.086;2022-09-14T17:40:50;17.00;99.90
52415;DHT22;38340;52.964;6.086;2022-09-14T17:43:16;16.90;99.90
52415;DHT22;38340;52.964;6.086;2022-09-14T17:45:55;16.90;99.90
52415;DHT22;38340;52.964;6.086;2022-09-14T17:48:22;16.80;99.90
52415;DHT22;38340;52.964;6.086;2022-09-14T17:50:48;16.70;99.90
52415;DHT22;38340;52.964;6.086;2022-09-14T17:53:14;16.60;99.90
52415;DHT22;38340;52.964;6.086;2022-09-14T17:55:40;16.50;99.90
52415;DHT22;38340;52.964;6.086;2022-09-14T17:58:07;16.50;99.90
52415;DHT22;38340;52.964;6.086;2022-09-14T18:00:33;16.40;99.90
52415;DHT22;38340;52.964;6.086;2022-09-14T18:02:58;16.30;99.90
52415;DHT22;38340;52.964;6.086;2022-09-14T18:05:24;16.20;99.90
52415;DHT22;38340;52.964;6.086;2022-09-14T18:07:50;16.10;99.90
52415;DHT22;38340;52.964;6.086;2022-09-14T18:10:16;16.00;99.90
52415;DHT22;38340;52.964;6.086;2022-09-14T18:12:48;15.90;99.90
52415;DHT22;38340;52.964;6.086;2022-09-14T18:15:15;15.80;99.90
52415;DHT22;38340;52.964;6.086;2022-09-14T18:17:42;15.70;99.90
52415;DHT22;38340;52.964;6.086;2022-09-14T18:20:09;15.60;99.90
52415;DHT22;38340;52.964;6.086;2022-09-14T18:22:36;15.60;99.90
52415;DHT22;38340;52.964;6.086;2022-09-14T18:25:03;15.50;99.90